sensor_id;sensor_type;location;lat;lon;timestamp;P1;durP1;ratioP1;P2;durP2;ratioP2
11827;SDS011;5971;49.646;8.568;2022-10-22T00:02:56;3.58;;;1.40;;
11827;SDS011;5971;49.646;8.568;2022-10-22T00:05:58;2.28;;;1.30;;
11827;SDS011;5971;49.646;8.568;2022-10-22T00:08:59;2.42;;;1.23;;
11827;SDS011;5971;49.646;8.568;2022-10-22T00:12:00;2.33;;;1.50;;
11827;SDS011;5971;49.646;8.568;2022-10-22T00:15:02;1.85;;;1.10;;
11827;SDS011;5971;49.646;8.568;2022-10-22T00:18:04;2.50;;;1.30;;
11827;SDS011;5971;49.646;8.568;2022-10-22T00:21:05;3.30;;;1.42;;
11827;SDS011;5971;49.646;8.568;2022-10-22T00:24:07;2.28;;;1.23;;
11827;SDS011;5971;49.646;8.568;2022-10-22T00:27:08;2.60;;;1.48;;
11827;SDS011;5971;49.646;8.568;2022-10-22T00:30:10;2.22;;;1.13;;
11827;SDS011;5971;49.646;8.568;2022-10-22T00:33:12;2.65;;;1.48;;
11827;SDS011;5971;49.646;8.568;2022-10-22T00:36:14;2.58;;;1.30;;
11827;SDS011;5971;49.646;8.568;2022-10-22T00:39:16;3.70;;;1.23;;
11827;SDS011;5971;49.646;8.568;2022-10-22T00:42:18;3.60;;;1.92;;
11827;SDS011;5971;49.646;8.568;2022-10-22T00:45:24;2.47;;;1.40;;
11827;SDS011;5971;49.646;8.568;2022-10-22T00:48:27;2.67;;;1.17;;
11827;SDS011;5971;49.646;8.568;2022-10-22T00:51:31;2.95;;;2.17;;
11827;SDS011;5971;49.646;8.568;2022-10-22T00:57:35;3.78;;;1.40;;
11827;SDS011;5971;49.646;8.568;2022-10-22T01:00:36;4.00;;;1.08;;
11827;SDS011;5971;49.646;8.568;2022-10-22T01:03:38;3.47;;;1.10;;
11827;SDS011;5971;49.646;8.568;2022-10-22T01:06:39;2.97;;;1.20;;
11827;SDS011;5971;49.646;8.568;2022-10-22T01:12:58;2.10;;;1.58;;
11827;SDS011;5971;49.646;8.568;2022-10-22T01:16:14;1.80;;;1.45;;
11827;SDS011;5971;49.646;8.568;2022-10-22T01:22:42;1.27;;;0.80;;
11827;SDS011;5971;49.646;8.568;2022-10-22T01:32:00;2.42;;;0.90;;
11827;SDS011;5971;49.646;8.568;2022-10-22T01:35:04;1.83;;;1.20;;
11827;SDS011;5971;49.646;8.568;2022-10-22T01:38:07;1.02;;;0.68;;
11827;SDS011;5971;49.646;8.568;2022-10-22T01:41:10;1.38;;;0.88;;
11827;SDS011;5971;49.646;8.568;2022-10-22T01:44:22;3.97;;;0.80;;
11827;SDS011;5971;49.646;8.568;2022-10-22T01:51:13;0.90;;;0.65;;
11827;SDS011;5971;49.646;8.568;2022-10-22T01:54:20;1.33;;;0.75;;
11827;SDS011;5971;49.646;8.568;2022-10-22T01:57:28;1.88;;;1.30;;
11827;SDS011;5971;49.646;8.568;2022-10-22T02:00:32;1.80;;;0.73;;
11827;SDS011;5971;49.646;8.568;2022-10-22T02:03:38;2.17;;;0.80;;
11827;SDS011;5971;49.646;8.568;2022-10-22T02:06:40;1.20;;;0.80;;
11827;SDS011;5971;49.646;8.568;2022-10-22T02:09:43;1.40;;;0.90;;
11827;SDS011;5971;49.646;8.568;2022-10-22T02:12:45;1.02;;;0.55;;
11827;SDS011;5971;49.646;8.568;2022-10-22T02:15:48;1.20;;;0.70;;
11827;SDS011;5971;49.646;8.568;2022-10-22T02:18:52;1.10;;;0.70;;
11827;SDS011;5971;49.646;8.568;2022-10-22T02:21:54;2.03;;;1.40;;
11827;SDS011;5971;49.646;8.568;2022-10-22T02:24:56;1.60;;;0.73;;
11827;SDS011;5971;49.646;8.568;2022-10-22T02:28:18;1.58;;;1.20;;
11827;SDS011;5971;49.646;8.568;2022-10-22T02:31:21;1.75;;;0.93;;
11827;SDS011;5971;49.646;8.568;2022-10-22T02:34:24;1.00;;;0.82;;
11827;SDS011;5971;49.646;8.568;2022-10-22T02:37:27;1.50;;;0.88;;
11827;SDS011;5971;49.646;8.568;2022-10-22T02:40:29;3.05;;;0.70;;
11827;SDS011;5971;49.646;8.568;2022-10-22T02:43:37;2.13;;;0.95;;
11827;SDS011;5971;49.646;8.568;2022-10-22T02:46:39;2.17;;;0.90;;
11827;SDS011;5971;49.646;8.568;2022-10-22T02:49:40;1.83;;;1.13;;
11827;SDS011;5971;49.646;8.568;2022-10-22T02:52:41;1.80;;;1.00;;
11827;SDS011;5971;49.646;8.568;2022-10-22T02:55:43;2.22;;;0.90;;
11827;SDS011;5971;49.646;8.568;2022-10-22T02:58:44;1.42;;;0.80;;
11827;SDS011;5971;49.646;8.568;2022-10-22T03:01:46;2.97;;;1.50;;
11827;SDS011;5971;49.646;8.568;2022-10-22T03:04:47;2.53;;;0.90;;
11827;SDS011;5971;49.646;8.568;2022-10-22T03:07:49;2.38;;;1.67;;
11827;SDS011;5971;49.646;8.568;2022-10-22T03:10:50;1.92;;;0.88;;
11827;SDS011;5971;49.646;8.568;2022-10-22T03:13:51;2.45;;;0.80;;
11827;SDS011;5971;49.646;8.568;2022-10-22T03:16:53;1.63;;;0.80;;
11827;SDS011;5971;49.646;8.568;2022-10-22T03:19:54;2.42;;;0.80;;
11827;SDS011;5971;49.646;8.568;2022-10-22T03:22:55;1.60;;;0.80;;
11827;SDS011;5971;49.646;8.568;2022-10-22T03:25:57;4.72;;;1.17;;
11827;SDS011;5971;49.646;8.568;2022-10-22T03:28:59;2.10;;;1.45;;
11827;SDS011;5971;49.646;8.568;2022-10-22T03:32:01;1.38;;;0.95;;
11827;SDS011;5971;49.646;8.568;2022-10-22T03:35:02;2.30;;;1.02;;
11827;SDS011;5971;49.646;8.568;2022-10-22T03:38:05;2.10;;;1.05;;
11827;SDS011;5971;49.646;8.568;2022-10-22T03:41:06;2.30;;;1.30;;
11827;SDS011;5971;49.646;8.568;2022-10-22T03:44:08;3.65;;;1.35;;
11827;SDS011;5971;49.646;8.568;2022-10-22T03:47:09;1.90;;;1.02;;
11827;SDS011;5971;49.646;8.568;2022-10-22T03:50:10;2.13;;;0.85;;
11827;SDS011;5971;49.646;8.568;2022-10-22T03:53:12;1.27;;;1.00;;
11827;SDS011;5971;49.646;8.568;2022-10-22T03:56:13;1.90;;;1.10;;
11827;SDS011;5971;49.646;8.568;2022-10-22T03:59:14;1.92;;;0.90;;
11827;SDS011;5971;49.646;8.568;2022-10-22T04:02:16;5.97;;;1.23;;
11827;SDS011;5971;49.646;8.568;2022-10-22T04:05:17;1.50;;;0.70;;
11827;SDS011;5971;49.646;8.568;2022-10-22T04:08:18;2.10;;;1.15;;
11827;SDS011;5971;49.646;8.568;2022-10-22T04:11:19;1.65;;;1.05;;
11827;SDS011;5971;49.646;8.568;2022-10-22T04:14:21;1.45;;;0.90;;
11827;SDS011;5971;49.646;8.568;2022-10-22T04:17:22;2.13;;;1.92;;
11827;SDS011;5971;49.646;8.568;2022-10-22T04:20:23;2.60;;;0.98;;
11827;SDS011;5971;49.646;8.568;2022-10-22T04:23:24;1.50;;;0.80;;
11827;SDS011;5971;49.646;8.568;2022-10-22T04:26:26;2.70;;;1.63;;
11827;SDS011;5971;49.646;8.568;2022-10-22T04:29:27;1.50;;;0.90;;
11827;SDS011;5971;49.646;8.568;2022-10-22T04:32:28;1.83;;;1.10;;
11827;SDS011;5971;49.646;8.568;2022-10-22T04:35:29;2.78;;;1.13;;
11827;SDS011;5971;49.646;8.568;2022-10-22T04:38:31;1.60;;;0.93;;
11827;SDS011;5971;49.646;8.568;2022-10-22T04:41:33;2.30;;;0.85;;
11827;SDS011;5971;49.646;8.568;2022-10-22T04:44:35;1.65;;;0.95;;
11827;SDS011;5971;49.646;8.568;2022-10-22T04:47:36;1.42;;;0.73;;
11827;SDS011;5971;49.646;8.568;2022-10-22T04:50:38;2.50;;;0.80;;
11827;SDS011;5971;49.646;8.568;2022-10-22T04:53:40;1.40;;;0.80;;
11827;SDS011;5971;49.646;8.568;2022-10-22T04:56:41;1.75;;;1.38;;
11827;SDS011;5971;49.646;8.568;2022-10-22T04:59:42;2.28;;;0.98;;
11827;SDS011;5971;49.646;8.568;2022-10-22T05:02:47;3.13;;;1.02;;
11827;SDS011;5971;49.646;8.568;2022-10-22T05:05:48;1.33;;;0.70;;
11827;SDS011;5971;49.646;8.568;2022-10-22T05:09:00;1.75;;;0.75;;
11827;SDS011;5971;49.646;8.568;2022-10-22T05:12:01;1.73;;;0.98;;
11827;SDS011;5971;49.646;8.568;2022-10-22T05:15:02;2.15;;;1.00;;
11827;SDS011;5971;49.646;8.568;2022-10-22T05:18:04;2.28;;;1.40;;
11827;SDS011;5971;49.646;8.568;2022-10-22T05:21:09;2.42;;;1.02;;
11827;SDS011;5971;49.646;8.568;2022-10-22T05:24:10;2.75;;;1.60;;
11827;SDS011;5971;49.646;8.568;2022-10-22T05:27:12;3.67;;;2.15;;
11827;SDS011;5971;49.646;8.568;2022-10-22T05:30:14;2.90;;;1.58;;
11827;SDS011;5971;49.646;8.568;2022-10-22T05:33:15;3.53;;;1.75;;
11827;SDS011;5971;49.646;8.568;2022-10-22T05:36:21;3.00;;;1.65;;
11827;SDS011;5971;49.646;8.568;2022-10-22T05:39:23;2.78;;;0.90;;
11827;SDS011;5971;49.646;8.568;2022-10-22T05:42:24;2.85;;;1.02;;
11827;SDS011;5971;49.646;8.568;2022-10-22T05:45:25;2.33;;;1.20;;
11827;SDS011;5971;49.646;8.568;2022-10-22T05:48:27;2.92;;;1.58;;
11827;SDS011;5971;49.646;8.568;2022-10-22T05:51:29;2.47;;;1.15;;
11827;SDS011;5971;49.646;8.568;2022-10-22T05:54:31;2.40;;;1.38;;
11827;SDS011;5971;49.646;8.568;2022-10-22T05:57:32;2.42;;;1.05;;
11827;SDS011;5971;49.646;8.568;2022-10-22T06:00:33;2.47;;;1.33;;
11827;SDS011;5971;49.646;8.568;2022-10-22T06:03:35;2.40;;;1.20;;
11827;SDS011;5971;49.646;8.568;2022-10-22T06:06:40;2.30;;;1.77;;
11827;SDS011;5971;49.646;8.568;2022-10-22T06:09:42;2.33;;;1.20;;
11827;SDS011;5971;49.646;8.568;2022-10-22T06:12:44;2.60;;;1.15;;
11827;SDS011;5971;49.646;8.568;2022-10-22T06:15:46;1.98;;;1.23;;
11827;SDS011;5971;49.646;8.568;2022-10-22T06:18:48;1.73;;;1.13;;
11827;SDS011;5971;49.646;8.568;2022-10-22T06:21:49;2.70;;;1.38;;
11827;SDS011;5971;49.646;8.568;2022-10-22T06:24:50;3.92;;;1.67;;
11827;SDS011;5971;49.646;8.568;2022-10-22T06:27:52;2.55;;;1.60;;
11827;SDS011;5971;49.646;8.568;2022-10-22T06:30:53;3.38;;;1.70;;
11827;SDS011;5971;49.646;8.568;2022-10-22T06:33:57;2.20;;;1.10;;
11827;SDS011;5971;49.646;8.568;2022-10-22T06:36:58;3.63;;;1.65;;
11827;SDS011;5971;49.646;8.568;2022-10-22T06:40:00;1.92;;;1.50;;
11827;SDS011;5971;49.646;8.568;2022-10-22T06:43:01;1.80;;;0.85;;
11827;SDS011;5971;49.646;8.568;2022-10-22T06:46:04;3.13;;;1.45;;
11827;SDS011;5971;49.646;8.568;2022-10-22T06:49:09;3.08;;;1.52;;
11827;SDS011;5971;49.646;8.568;2022-10-22T06:52:11;5.03;;;3.20;;
11827;SDS011;5971;49.646;8.568;2022-10-22T06:55:13;4.57;;;2.00;;
11827;SDS011;5971;49.646;8.568;2022-10-22T06:58:14;3.30;;;2.22;;
11827;SDS011;5971;49.646;8.568;2022-10-22T07:01:16;2.78;;;1.77;;
11827;SDS011;5971;49.646;8.568;2022-10-22T07:04:18;2.20;;;1.40;;
11827;SDS011;5971;49.646;8.568;2022-10-22T07:07:19;2.25;;;1.52;;
11827;SDS011;5971;49.646;8.568;2022-10-22T07:10:21;2.90;;;1.42;;
11827;SDS011;5971;49.646;8.568;2022-10-22T07:13:24;2.95;;;2.20;;
11827;SDS011;5971;49.646;8.568;2022-10-22T07:16:25;3.17;;;1.50;;
11827;SDS011;5971;49.646;8.568;2022-10-22T07:19:32;4.03;;;2.30;;
11827;SDS011;5971;49.646;8.568;2022-10-22T07:22:33;2.70;;;1.33;;
11827;SDS011;5971;49.646;8.568;2022-10-22T07:25:34;2.10;;;1.17;;
11827;SDS011;5971;49.646;8.568;2022-10-22T07:28:36;3.08;;;1.52;;
11827;SDS011;5971;49.646;8.568;2022-10-22T07:31:40;3.50;;;1.70;;
11827;SDS011;5971;49.646;8.568;2022-10-22T07:34:41;3.03;;;0.93;;
11827;SDS011;5971;49.646;8.568;2022-10-22T07:37:44;2.30;;;0.90;;
11827;SDS011;5971;49.646;8.568;2022-10-22T07:40:45;6.57;;;3.35;;
11827;SDS011;5971;49.646;8.568;2022-10-22T07:43:46;3.05;;;1.60;;
11827;SDS011;5971;49.646;8.568;2022-10-22T07:46:48;1.80;;;1.08;;
11827;SDS011;5971;49.646;8.568;2022-10-22T07:49:49;2.47;;;1.10;;
11827;SDS011;5971;49.646;8.568;2022-10-22T07:52:50;1.95;;;0.98;;
11827;SDS011;5971;49.646;8.568;2022-10-22T07:55:56;2.05;;;1.55;;
11827;SDS011;5971;49.646;8.568;2022-10-22T07:58:57;2.40;;;1.50;;
11827;SDS011;5971;49.646;8.568;2022-10-22T08:01:59;2.70;;;1.42;;
11827;SDS011;5971;49.646;8.568;2022-10-22T08:05:00;1.08;;;0.70;;
11827;SDS011;5971;49.646;8.568;2022-10-22T08:08:01;3.80;;;1.92;;
11827;SDS011;5971;49.646;8.568;2022-10-22T08:11:02;3.50;;;1.55;;
11827;SDS011;5971;49.646;8.568;2022-10-22T08:14:04;3.00;;;0.70;;
11827;SDS011;5971;49.646;8.568;2022-10-22T08:17:05;1.33;;;0.95;;
11827;SDS011;5971;49.646;8.568;2022-10-22T08:20:07;3.53;;;2.17;;
11827;SDS011;5971;49.646;8.568;2022-10-22T08:23:08;1.00;;;0.90;;
11827;SDS011;5971;49.646;8.568;2022-10-22T08:26:10;3.35;;;1.30;;
11827;SDS011;5971;49.646;8.568;2022-10-22T08:29:11;2.05;;;0.93;;
11827;SDS011;5971;49.646;8.568;2022-10-22T08:32:13;3.20;;;0.82;;
11827;SDS011;5971;49.646;8.568;2022-10-22T08:35:14;2.30;;;0.85;;
11827;SDS011;5971;49.646;8.568;2022-10-22T08:38:18;0.63;;;0.50;;
11827;SDS011;5971;49.646;8.568;2022-10-22T08:41:20;1.80;;;0.70;;
11827;SDS011;5971;49.646;8.568;2022-10-22T08:44:28;1.05;;;0.70;;
11827;SDS011;5971;49.646;8.568;2022-10-22T08:47:54;1.45;;;0.75;;
11827;SDS011;5971;49.646;8.568;2022-10-22T08:50:59;1.17;;;0.65;;
11827;SDS011;5971;49.646;8.568;2022-10-22T08:54:05;1.80;;;0.90;;
11827;SDS011;5971;49.646;8.568;2022-10-22T09:00:13;0.98;;;0.70;;
11827;SDS011;5971;49.646;8.568;2022-10-22T09:06:28;1.08;;;0.68;;
11827;SDS011;5971;49.646;8.568;2022-10-22T09:09:31;2.72;;;1.02;;
11827;SDS011;5971;49.646;8.568;2022-10-22T09:12:35;1.05;;;0.77;;
11827;SDS011;5971;49.646;8.568;2022-10-22T09:15:37;0.88;;;0.52;;
11827;SDS011;5971;49.646;8.568;2022-10-22T09:18:40;1.77;;;0.63;;
11827;SDS011;5971;49.646;8.568;2022-10-22T09:21:50;1.10;;;0.93;;
11827;SDS011;5971;49.646;8.568;2022-10-22T09:25:01;1.27;;;0.85;;
11827;SDS011;5971;49.646;8.568;2022-10-22T09:28:08;1.38;;;0.65;;
11827;SDS011;5971;49.646;8.568;2022-10-22T09:31:11;2.17;;;0.82;;
11827;SDS011;5971;49.646;8.568;2022-10-22T09:34:22;1.48;;;0.73;;
11827;SDS011;5971;49.646;8.568;2022-10-22T09:37:24;1.38;;;0.68;;
11827;SDS011;5971;49.646;8.568;2022-10-22T09:40:25;1.98;;;1.13;;
11827;SDS011;5971;49.646;8.568;2022-10-22T09:43:27;1.65;;;0.80;;
11827;SDS011;5971;49.646;8.568;2022-10-22T09:46:28;2.05;;;0.90;;
11827;SDS011;5971;49.646;8.568;2022-10-22T09:49:32;2.70;;;1.55;;
11827;SDS011;5971;49.646;8.568;2022-10-22T09:52:34;1.23;;;0.73;;
11827;SDS011;5971;49.646;8.568;2022-10-22T09:55:37;1.35;;;0.75;;
11827;SDS011;5971;49.646;8.568;2022-10-22T09:58:45;1.85;;;0.90;;
11827;SDS011;5971;49.646;8.568;2022-10-22T10:01:55;1.10;;;0.80;;
11827;SDS011;5971;49.646;8.568;2022-10-22T10:05:18;1.35;;;0.82;;
11827;SDS011;5971;49.646;8.568;2022-10-22T10:08:19;2.80;;;0.95;;
11827;SDS011;5971;49.646;8.568;2022-10-22T10:11:42;1.42;;;0.80;;
11827;SDS011;5971;49.646;8.568;2022-10-22T10:21:06;1.25;;;0.70;;
11827;SDS011;5971;49.646;8.568;2022-10-22T10:24:19;2.10;;;0.80;;
11827;SDS011;5971;49.646;8.568;2022-10-22T10:30:59;2.10;;;0.82;;
11827;SDS011;5971;49.646;8.568;2022-10-22T10:37:33;2.38;;;0.90;;
11827;SDS011;5971;49.646;8.568;2022-10-22T10:40:39;2.17;;;0.82;;
11827;SDS011;5971;49.646;8.568;2022-10-22T10:43:47;1.38;;;0.63;;
11827;SDS011;5971;49.646;8.568;2022-10-22T10:50:21;2.03;;;0.80;;
11827;SDS011;5971;49.646;8.568;2022-10-22T10:53:26;1.85;;;0.80;;
11827;SDS011;5971;49.646;8.568;2022-10-22T10:56:48;2.03;;;0.60;;
11827;SDS011;5971;49.646;8.568;2022-10-22T11:06:24;1.70;;;0.80;;
11827;SDS011;5971;49.646;8.568;2022-10-22T11:09:27;1.85;;;0.80;;
11827;SDS011;5971;49.646;8.568;2022-10-22T11:12:33;0.93;;;0.63;;
11827;SDS011;5971;49.646;8.568;2022-10-22T11:15:36;0.75;;;0.40;;
11827;SDS011;5971;49.646;8.568;2022-10-22T11:22:27;1.83;;;0.70;;
11827;SDS011;5971;49.646;8.568;2022-10-22T11:25:30;1.92;;;1.02;;
11827;SDS011;5971;49.646;8.568;2022-10-22T11:31:34;1.25;;;0.60;;
11827;SDS011;5971;49.646;8.568;2022-10-22T11:34:38;0.82;;;0.60;;
11827;SDS011;5971;49.646;8.568;2022-10-22T11:37:41;1.13;;;0.60;;
11827;SDS011;5971;49.646;8.568;2022-10-22T11:40:50;2.97;;;0.90;;
11827;SDS011;5971;49.646;8.568;2022-10-22T11:46:57;1.40;;;0.70;;
11827;SDS011;5971;49.646;8.568;2022-10-22T11:50:02;1.27;;;0.77;;
11827;SDS011;5971;49.646;8.568;2022-10-22T11:53:18;1.33;;;0.82;;
11827;SDS011;5971;49.646;8.568;2022-10-22T11:56:21;1.70;;;0.70;;
11827;SDS011;5971;49.646;8.568;2022-10-22T11:59:38;1.20;;;0.60;;
11827;SDS011;5971;49.646;8.568;2022-10-22T12:02:43;1.33;;;0.63;;
11827;SDS011;5971;49.646;8.568;2022-10-22T12:05:45;0.82;;;0.65;;
11827;SDS011;5971;49.646;8.568;2022-10-22T12:12:00;3.17;;;0.80;;
11827;SDS011;5971;49.646;8.568;2022-10-22T12:15:19;1.27;;;0.70;;
11827;SDS011;5971;49.646;8.568;2022-10-22T12:18:23;1.70;;;0.75;;
11827;SDS011;5971;49.646;8.568;2022-10-22T12:21:25;1.63;;;0.70;;
11827;SDS011;5971;49.646;8.568;2022-10-22T12:24:30;1.67;;;0.70;;
11827;SDS011;5971;49.646;8.568;2022-10-22T12:27:34;1.35;;;0.70;;
11827;SDS011;5971;49.646;8.568;2022-10-22T12:30:35;1.63;;;0.80;;
11827;SDS011;5971;49.646;8.568;2022-10-22T12:33:37;1.27;;;0.70;;
11827;SDS011;5971;49.646;8.568;2022-10-22T12:36:38;2.10;;;0.70;;
11827;SDS011;5971;49.646;8.568;2022-10-22T12:39:40;1.58;;;0.98;;
11827;SDS011;5971;49.646;8.568;2022-10-22T12:42:55;2.45;;;0.80;;
11827;SDS011;5971;49.646;8.568;2022-10-22T12:45:57;1.35;;;0.70;;
11827;SDS011;5971;49.646;8.568;2022-10-22T12:48:59;1.83;;;0.60;;
11827;SDS011;5971;49.646;8.568;2022-10-22T12:52:02;1.45;;;0.63;;
11827;SDS011;5971;49.646;8.568;2022-10-22T12:55:05;1.25;;;0.60;;
11827;SDS011;5971;49.646;8.568;2022-10-22T12:58:10;1.38;;;0.90;;
11827;SDS011;5971;49.646;8.568;2022-10-22T13:01:15;1.30;;;0.68;;
11827;SDS011;5971;49.646;8.568;2022-10-22T13:04:34;1.55;;;1.13;;
11827;SDS011;5971;49.646;8.568;2022-10-22T13:07:39;1.50;;;0.65;;
11827;SDS011;5971;49.646;8.568;2022-10-22T13:10:47;1.42;;;0.70;;
11827;SDS011;5971;49.646;8.568;2022-10-22T13:13:49;1.42;;;0.77;;
11827;SDS011;5971;49.646;8.568;2022-10-22T13:20:13;1.67;;;0.77;;
11827;SDS011;5971;49.646;8.568;2022-10-22T13:23:19;1.40;;;0.70;;
11827;SDS011;5971;49.646;8.568;2022-10-22T13:26:20;3.80;;;1.00;;
11827;SDS011;5971;49.646;8.568;2022-10-22T13:29:22;2.33;;;0.90;;
11827;SDS011;5971;49.646;8.568;2022-10-22T13:32:31;1.10;;;0.80;;
11827;SDS011;5971;49.646;8.568;2022-10-22T13:35:33;2.38;;;1.00;;
11827;SDS011;5971;49.646;8.568;2022-10-22T13:41:37;1.58;;;0.88;;
11827;SDS011;5971;49.646;8.568;2022-10-22T13:44:43;1.52;;;1.00;;
11827;SDS011;5971;49.646;8.568;2022-10-22T13:47:51;2.10;;;1.00;;
11827;SDS011;5971;49.646;8.568;2022-10-22T13:50:53;2.53;;;0.95;;
11827;SDS011;5971;49.646;8.568;2022-10-22T13:53:55;2.28;;;0.77;;
11827;SDS011;5971;49.646;8.568;2022-10-22T13:56:56;1.77;;;0.82;;
11827;SDS011;5971;49.646;8.568;2022-10-22T13:59:57;2.35;;;0.80;;
11827;SDS011;5971;49.646;8.568;2022-10-22T14:02:58;1.85;;;0.90;;
11827;SDS011;5971;49.646;8.568;2022-10-22T14:06:00;2.10;;;0.93;;
11827;SDS011;5971;49.646;8.568;2022-10-22T14:09:03;2.33;;;0.93;;
11827;SDS011;5971;49.646;8.568;2022-10-22T14:12:09;1.38;;;0.82;;
11827;SDS011;5971;49.646;8.568;2022-10-22T14:15:11;2.65;;;1.10;;
11827;SDS011;5971;49.646;8.568;2022-10-22T14:18:21;2.35;;;1.05;;
11827;SDS011;5971;49.646;8.568;2022-10-22T14:21:25;2.10;;;1.20;;
11827;SDS011;5971;49.646;8.568;2022-10-22T14:24:28;1.88;;;0.95;;
11827;SDS011;5971;49.646;8.568;2022-10-22T14:27:29;1.85;;;0.95;;
11827;SDS011;5971;49.646;8.568;2022-10-22T14:30:30;1.92;;;0.95;;
11827;SDS011;5971;49.646;8.568;2022-10-22T14:33:33;2.70;;;1.10;;
11827;SDS011;5971;49.646;8.568;2022-10-22T14:36:34;3.10;;;1.20;;
11827;SDS011;5971;49.646;8.568;2022-10-22T14:39:35;2.20;;;0.93;;
11827;SDS011;5971;49.646;8.568;2022-10-22T14:42:40;2.88;;;1.35;;
11827;SDS011;5971;49.646;8.568;2022-10-22T14:45:43;2.00;;;0.95;;
11827;SDS011;5971;49.646;8.568;2022-10-22T14:48:44;2.20;;;1.00;;
11827;SDS011;5971;49.646;8.568;2022-10-22T14:51:46;1.80;;;0.90;;
11827;SDS011;5971;49.646;8.568;2022-10-22T14:54:47;1.67;;;1.00;;
11827;SDS011;5971;49.646;8.568;2022-10-22T14:57:49;2.30;;;0.88;;
11827;SDS011;5971;49.646;8.568;2022-10-22T15:00:50;2.78;;;1.00;;
11827;SDS011;5971;49.646;8.568;2022-10-22T15:03:51;3.25;;;0.90;;
11827;SDS011;5971;49.646;8.568;2022-10-22T15:06:53;2.13;;;0.80;;
11827;SDS011;5971;49.646;8.568;2022-10-22T15:09:57;1.75;;;0.88;;
11827;SDS011;5971;49.646;8.568;2022-10-22T15:12:58;1.80;;;0.80;;
11827;SDS011;5971;49.646;8.568;2022-10-22T15:15:59;1.92;;;0.90;;
11827;SDS011;5971;49.646;8.568;2022-10-22T15:19:01;2.38;;;1.10;;
11827;SDS011;5971;49.646;8.568;2022-10-22T15:22:02;3.08;;;0.80;;
11827;SDS011;5971;49.646;8.568;2022-10-22T15:25:05;2.25;;;0.85;;
11827;SDS011;5971;49.646;8.568;2022-10-22T15:28:06;2.67;;;1.00;;
11827;SDS011;5971;49.646;8.568;2022-10-22T15:31:11;1.80;;;1.08;;
11827;SDS011;5971;49.646;8.568;2022-10-22T15:34:17;3.05;;;0.82;;
11827;SDS011;5971;49.646;8.568;2022-10-22T15:37:18;6.47;;;1.10;;
11827;SDS011;5971;49.646;8.568;2022-10-22T15:40:19;1.67;;;0.93;;
11827;SDS011;5971;49.646;8.568;2022-10-22T15:43:21;1.83;;;0.90;;
11827;SDS011;5971;49.646;8.568;2022-10-22T15:46:22;2.35;;;1.00;;
11827;SDS011;5971;49.646;8.568;2022-10-22T15:49:26;2.22;;;1.05;;
11827;SDS011;5971;49.646;8.568;2022-10-22T15:52:27;2.75;;;1.15;;
11827;SDS011;5971;49.646;8.568;2022-10-22T15:55:34;1.85;;;1.02;;
11827;SDS011;5971;49.646;8.568;2022-10-22T15:58:35;1.85;;;0.95;;
11827;SDS011;5971;49.646;8.568;2022-10-22T16:01:37;1.88;;;1.00;;
11827;SDS011;5971;49.646;8.568;2022-10-22T16:04:38;1.90;;;0.95;;
11827;SDS011;5971;49.646;8.568;2022-10-22T16:07:40;2.08;;;0.80;;
11827;SDS011;5971;49.646;8.568;2022-10-22T16:10:45;2.97;;;1.00;;
11827;SDS011;5971;49.646;8.568;2022-10-22T16:13:51;2.40;;;1.15;;
11827;SDS011;5971;49.646;8.568;2022-10-22T16:16:53;2.92;;;1.13;;
11827;SDS011;5971;49.646;8.568;2022-10-22T16:19:54;1.58;;;0.90;;
11827;SDS011;5971;49.646;8.568;2022-10-22T16:22:55;2.28;;;1.10;;
11827;SDS011;5971;49.646;8.568;2022-10-22T16:25:59;3.17;;;1.27;;
11827;SDS011;5971;49.646;8.568;2022-10-22T16:29:01;2.33;;;1.00;;
11827;SDS011;5971;49.646;8.568;2022-10-22T16:32:02;3.92;;;1.20;;
11827;SDS011;5971;49.646;8.568;2022-10-22T16:35:03;4.18;;;1.30;;
11827;SDS011;5971;49.646;8.568;2022-10-22T16:38:04;3.25;;;1.33;;
11827;SDS011;5971;49.646;8.568;2022-10-22T16:41:10;3.22;;;1.15;;
11827;SDS011;5971;49.646;8.568;2022-10-22T16:44:13;2.47;;;1.17;;
11827;SDS011;5971;49.646;8.568;2022-10-22T16:47:14;3.05;;;1.52;;
11827;SDS011;5971;49.646;8.568;2022-10-22T16:50:15;3.90;;;1.50;;
11827;SDS011;5971;49.646;8.568;2022-10-22T16:53:16;2.90;;;1.02;;
11827;SDS011;5971;49.646;8.568;2022-10-22T16:56:18;3.90;;;1.88;;
11827;SDS011;5971;49.646;8.568;2022-10-22T16:59:19;2.10;;;1.13;;
11827;SDS011;5971;49.646;8.568;2022-10-22T17:02:21;5.05;;;1.45;;
11827;SDS011;5971;49.646;8.568;2022-10-22T17:05:22;2.53;;;1.60;;
11827;SDS011;5971;49.646;8.568;2022-10-22T17:08:23;1.92;;;1.20;;
11827;SDS011;5971;49.646;8.568;2022-10-22T17:11:25;2.65;;;1.33;;
11827;SDS011;5971;49.646;8.568;2022-10-22T17:14:29;3.30;;;1.90;;
11827;SDS011;5971;49.646;8.568;2022-10-22T17:17:31;4.20;;;1.73;;
11827;SDS011;5971;49.646;8.568;2022-10-22T17:20:32;5.35;;;2.15;;
11827;SDS011;5971;49.646;8.568;2022-10-22T17:23:34;3.88;;;1.92;;
11827;SDS011;5971;49.646;8.568;2022-10-22T17:26:35;5.15;;;1.63;;
11827;SDS011;5971;49.646;8.568;2022-10-22T17:29:37;4.25;;;1.80;;
11827;SDS011;5971;49.646;8.568;2022-10-22T17:32:38;5.65;;;2.80;;
11827;SDS011;5971;49.646;8.568;2022-10-22T17:35:40;5.50;;;2.42;;
11827;SDS011;5971;49.646;8.568;2022-10-22T17:38:42;4.00;;;2.53;;
11827;SDS011;5971;49.646;8.568;2022-10-22T17:41:43;4.65;;;3.25;;
11827;SDS011;5971;49.646;8.568;2022-10-22T17:44:45;5.10;;;2.60;;
11827;SDS011;5971;49.646;8.568;2022-10-22T17:47:47;5.50;;;2.63;;
11827;SDS011;5971;49.646;8.568;2022-10-22T17:50:48;3.55;;;1.73;;
11827;SDS011;5971;49.646;8.568;2022-10-22T17:53:52;4.85;;;2.00;;
11827;SDS011;5971;49.646;8.568;2022-10-22T17:56:53;4.40;;;2.80;;
11827;SDS011;5971;49.646;8.568;2022-10-22T17:59:55;5.63;;;2.70;;
11827;SDS011;5971;49.646;8.568;2022-10-22T18:02:57;6.03;;;3.20;;
11827;SDS011;5971;49.646;8.568;2022-10-22T18:06:05;6.05;;;3.38;;
11827;SDS011;5971;49.646;8.568;2022-10-22T18:09:07;7.05;;;3.42;;
11827;SDS011;5971;49.646;8.568;2022-10-22T18:12:12;5.18;;;3.50;;
11827;SDS011;5971;49.646;8.568;2022-10-22T18:15:14;6.07;;;3.95;;
11827;SDS011;5971;49.646;8.568;2022-10-22T18:18:15;7.90;;;4.47;;
11827;SDS011;5971;49.646;8.568;2022-10-22T18:21:16;8.95;;;3.72;;
11827;SDS011;5971;49.646;8.568;2022-10-22T18:24:18;5.90;;;3.15;;
11827;SDS011;5971;49.646;8.568;2022-10-22T18:27:20;5.93;;;2.63;;
11827;SDS011;5971;49.646;8.568;2022-10-22T18:30:22;10.02;;;3.17;;
11827;SDS011;5971;49.646;8.568;2022-10-22T18:33:23;5.47;;;3.28;;
11827;SDS011;5971;49.646;8.568;2022-10-22T18:36:25;7.53;;;2.92;;
11827;SDS011;5971;49.646;8.568;2022-10-22T18:39:27;3.97;;;2.10;;
11827;SDS011;5971;49.646;8.568;2022-10-22T18:42:28;3.35;;;2.20;;
11827;SDS011;5971;49.646;8.568;2022-10-22T18:45:34;3.75;;;2.25;;
11827;SDS011;5971;49.646;8.568;2022-10-22T18:48:35;5.97;;;3.00;;
11827;SDS011;5971;49.646;8.568;2022-10-22T18:51:37;4.60;;;2.25;;
11827;SDS011;5971;49.646;8.568;2022-10-22T18:54:38;5.43;;;3.13;;
11827;SDS011;5971;49.646;8.568;2022-10-22T18:57:39;6.43;;;2.70;;
11827;SDS011;5971;49.646;8.568;2022-10-22T19:00:41;5.15;;;2.25;;
11827;SDS011;5971;49.646;8.568;2022-10-22T19:03:42;4.22;;;2.17;;
11827;SDS011;5971;49.646;8.568;2022-10-22T19:06:44;4.93;;;2.22;;
11827;SDS011;5971;49.646;8.568;2022-10-22T19:09:46;5.50;;;2.45;;
11827;SDS011;5971;49.646;8.568;2022-10-22T19:12:47;3.47;;;1.98;;
11827;SDS011;5971;49.646;8.568;2022-10-22T19:15:48;5.20;;;2.08;;
11827;SDS011;5971;49.646;8.568;2022-10-22T19:18:50;5.05;;;2.03;;
11827;SDS011;5971;49.646;8.568;2022-10-22T19:21:52;4.00;;;2.13;;
11827;SDS011;5971;49.646;8.568;2022-10-22T19:24:53;4.22;;;2.90;;
11827;SDS011;5971;49.646;8.568;2022-10-22T19:27:54;5.10;;;2.42;;
11827;SDS011;5971;49.646;8.568;2022-10-22T19:30:56;4.57;;;2.25;;
11827;SDS011;5971;49.646;8.568;2022-10-22T19:33:58;6.97;;;2.42;;
11827;SDS011;5971;49.646;8.568;2022-10-22T19:37:00;3.83;;;2.17;;
11827;SDS011;5971;49.646;8.568;2022-10-22T19:40:02;4.65;;;2.92;;
11827;SDS011;5971;49.646;8.568;2022-10-22T19:43:03;5.30;;;2.83;;
11827;SDS011;5971;49.646;8.568;2022-10-22T19:46:05;5.20;;;2.40;;
11827;SDS011;5971;49.646;8.568;2022-10-22T19:49:06;6.13;;;2.55;;